Port Heiden, AK (99549)

8:34 AM AKST on February 21, 2017 (GMT -0900)
Port Heiden | | Change Station
Active Advisory: Winter Weather Advisory

Elev 85 ft 56.96 °N, 158.63 °W | Updated 1 hour ago

Overcast
Overcast
30 °F
Feels Like 15 °F
N
29
Wind Variable Wind from SE
Gusts 34 mph

Today
High -- | Low -- °F
--% Chance of Precip.
Yesterday
High -- | Low -- °F
Precip. -- in
Pressure 29.81 in
Visibility 9.0 miles
Clouds Scattered Clouds 6000 ft
Windchill 15 °F
Dew Point 26 °F
Humidity 85%
Rainfall 0.00 in
Snow Depth Not available.
8:46 AM 6:50 PM
Waning Crescent, 24% visible
METAR PAPH 211556Z AUTO 14025G30KT 9SM SCT060 M01/M03 A2980 RMK AO2 PK WND 14030/1550 WSHFT 1531 SLP093 T10111033 FZRANO
Pressure 29.81 in
Visibility 9.0 miles
Clouds Scattered Clouds 6000 ft
Windchill 15 °F
Dew Point 26 °F
Humidity 85%
Rainfall 0.00 in
Snow Depth Not available.
8:46 AM 6:50 PM
Waning Crescent, 24% visible
METAR PAPH 211556Z AUTO 14025G30KT 9SM SCT060 M01/M03 A2980 RMK AO2 PK WND 14030/1550 WSHFT 1531 SLP093 T10111033 FZRANO

Get Your Daily Forecast Email!

Thanks for signing up!

Be on the lookout for a verification email in your inbox.

You'll start receiving the daily forecast at 8 AM.

×

10-Day Weather Forecast

Almanac

Astronomy

Feb. 21, 2017 Rise Set
Actual Time
Civil Twilight
Nautical Twilight
Astronomical Twilight
Moon
Length of Visible Light
Length of Day
Tomorrow will be .
, % of the Moon is Illuminated

Today's Extremes

State Highs State Lows

Community

WunderPhotos

Upload Photos

1,962,540 photos uploaded!

WunderBlog® & News

Nearby

Air Quality

  Air Quality AQ Index Pollutant
Not available.

Snow Depth

Station Depth Elevation

Earthquake Activity

City Distance Mag. Time & Date
Minimum magnitude displayed is 2.5.

Coastal Water Temperatures

Place Temperature

Stations

Nearby Weather Stations

Station Location Temp. Windchill Dew Point Humidity Wind Precip. Elev Updated Type
                   

Watches & Warnings

Winter Weather Advisory
Issued: 6:44 AM AKST Feb. 21, 2017 – National Weather Service

... Winter Weather Advisory for snow and blowing snow remains in
effect until 3 am akst Wednesday from Dillingham north and
west...

* location... from Dillingham north and west.

* Snow... 6 to 11 inches.

* Visibility... reduced to one-half mile at times. The blowing
snow threat will be limited to areas along the coast west of
Dillingham.

* Wind... northeast wind 15 to 30 mph.

* Timing... snowfall rates will begin to increase late this
morning... with the heaviest snowfall and strongest winds
beginning in the early afternoon. Conditions will begin to
improve by tonight.

* Impacts... snowfall combined with strong winds and blowing snow
may produce white-out conditions at times. Driving may become
very difficult.

Precautionary/preparedness actions...

Travel may be difficult. Visibilities will be limited in falling
and blowing snow.